x

Nantucket 54nm Southeast Of Nantucket (44008) Wave Buoy

1:50am - Sat 28th Feb 2015 All times are EST. -5 hours from GMT.

  • Sig Wave height 5.6ft
  • Swell Direction
  • Peak Period 11s
  • Average Period 7s
  • Wind
    16mph, 18mph gusts
  • Sea Temp 41°f
  • Air Temp 31°f
  • Sea Pressure 1033.5mb
  • Nantucket 54nm Southeast Of Nantucket
  • Nantucket 54nm Southeast Of Nantucket

More Historic Weather Station data

Upgrade to MSW Pro to gain access to the past 30 days of data for over 8000 Wavebouys and Weather Stations around the globe.

Join Pro

Comparision Forecast

View Surf forecast
   
Sat 02/28 1:50am 5.5ft 11s 7s 16 18 mph 1033.5mb 41f 31f
12:50am 6ft 11s 7s 13 18 mph 1032.8mb 40f 30f
Fri 02/27 11:50pm 6ft 10s 7s 13 18 mph 1032.6mb 40f 30f
10:50pm 6.5ft 10s 7s 16 20 mph 1032.1mb 41f 30f
9:50pm 7ft 11s 8s 16 22 mph 1031.5mb 42f 29f
8:50pm 6.5ft 11s 7s 13 18 mph 1030.8mb 42f 30f
7:50pm 6.5ft 10s 7s 13 18 mph 1030mb 42f 30f
6:50pm 6ft 11s 7s 11 16 mph 1029.9mb 43f 30f
5:50pm 7.5ft 11s 8s 11 16 mph 1029mb 43f 30f
4:50pm 7ft 11s 8s 11 16 mph 1028.1mb 43f 30f
3:50pm 7ft 11s 8s 11 13 mph 1027.6mb 43f 31f
2:50pm 7ft 10s 8s 11 16 mph 1026.8mb 42f 30f
1:50pm 8.5ft 11s 8s 9 16 mph 1026.2mb 41f 30f
12:50pm 9ft 11s 8s 9 13 mph 1025.6mb 41f 30f
11:50am 8.5ft 11s 7s 11 16 mph 1026.2mb 41f 31f
10:50am 8.5ft 10s 7s 11 16 mph 1025.8mb 42f 31f
9:50am 9ft 11s 7s 16 20 mph 1025.1mb 42f 31f
8:50am 8ft 11s 7s 11 16 mph 1024.8mb 40f 31f
7:50am 8.5ft 12s 7s 11 16 mph 1024mb 40f 31f
6:50am 8ft 11s 7s 11 16 mph 1022.9mb 40f 31f
5:50am 8ft 11s 7s 11 13 mph 1021.9mb 40f 31f
4:50am 8ft 11s 7s 13 20 mph 1021.1mb 40f 31f
3:50am 8.5ft 11s 7s 13 18 mph 1019.6mb 40f 32f
2:50am 9ft 11s 7s 16 20 mph 1018.4mb 41f 32f
1:50am 8.5ft 7s 7s 18 22 mph 1017.6mb 41f 32f
12:50am 9ft 7s 6s 20 25 mph 1016.8mb 41f 32f
Thu 02/26 11:50pm 10ft 8s 6s 22 25 mph 1016.3mb 41f 33f
10:50pm 9ft 8s 6s 25 29 mph 1015.3mb 41f 33f
9:50pm 10.5ft 8s 6s 22 27 mph 1014.6mb 40f 33f
8:50pm 11ft 8s 6s 22 27 mph 1013.4mb 40f 34f
7:50pm 10ft 7s 6s 25 29 mph 1012.1mb 40f 34f
6:50pm 9ft 7s 6s 27 31 mph 1010.7mb 40f 34f
5:50pm 7.5ft 6s 5s 29 36 mph 1008.6mb 40f 35f
4:50pm 7ft 6s 5s 29 36 mph 1007.2mb 40f 36f
3:50pm 6ft 5s 5s 27 34 mph 1006.4mb 40f 35f
2:50pm 5ft 5s 5s 27 34 mph 1006.9mb 40f 34f
1:50pm 5ft 4s 5s 25 31 mph 1008.9mb 41f 32f
12:50pm 4.5ft 10s 5s 22 25 mph 1009.7mb 41f 32f
11:50am 4.5ft 9s 5s 22 27 mph 1010.6mb 40f 31f
10:50am 4.5ft 9s 5s 22 25 mph 1012mb 40f 30f
9:50am 4.5ft 10s 5s 20 25 mph 1012.6mb 39f 30f
8:50am 4.5ft 10s 5s 16 20 mph 1014.1mb 39f 30f
7:50am 4.5ft 7s 6s 18 22 mph 1014.1mb 39f 34f
6:50am 4.5ft 7s 5s 13 18 mph 1015.4mb 39f 34f
5:50am 5ft 7s 6s 11
mph
1016.1mb 40f 34f
4:50am 4.5ft 7s 5s 11 16 mph 1015.8mb 40f 34f
3:50am 5ft 7s 5s 13 16 mph 1015.2mb 40f 35f
2:50am 5ft 7s 6s 11 13 mph 1015.6mb 40f 36f
1:50am 6ft 7s 6s 13 16 mph 1016.1mb 40f 37f
12:50am 6ft 7s 6s 11 16 mph 1015mb 40f 36f
Wed 02/25 11:50pm 6ft 7s 6s 16 20 mph 1015.1mb 39f 36f
10:50pm 6.5ft 7s 6s 18 22 mph 1015.3mb 39f 36f
9:50pm 6.5ft 7s 6s 20 25 mph 1014.4mb 39f 36f
8:50pm 7ft 7s 5s 25 29 mph 1013.9mb 39f 36f
7:50pm 7ft 7s 5s 27 31 mph 1011.7mb 40f 35f
6:50pm 7.5ft 7s 5s 27 31 mph 1011.1mb 40f 35f
5:50pm 8ft 7s 5s 29 34 mph 1010.4mb 40f 34f
4:50pm 7.5ft 7s 6s 27 34 mph 1009mb 41f 35f
3:50pm 8ft 7s 6s 25 29 mph 1008.4mb 41f 34f
2:50pm 8ft 7s 6s 25 29 mph 1007.8mb 40f 33f
1:50pm 8ft 7s 6s 25 31 mph 1006.9mb 40f 33f
12:50pm 7.5ft 6s 5s 27 34 mph 1006.2mb 40f 33f
11:50am 7.5ft 6s 6s 27 34 mph 1006.3mb 39f 33f
10:50am 7.5ft 6s 5s 27 31 mph 1006mb 39f 33f
9:50am 7ft 6s 5s 27 31 mph 1005.7mb 39f 33f
8:50am 6.5ft 7s 5s 27 34 mph 1005.2mb 39f 33f
7:50am 6.5ft 8s 5s 25 29 mph 1004.5mb 41f 36f
6:50am 7ft 8s 5s 27 34 mph 1003.6mb 42f 36f
5:50am 7.5ft 8s 6s 27 31 mph 1003.2mb 43f 37f
4:50am 7ft 7s 6s 18 22 mph 1003.4mb 43f 45f
3:50am 7ft 7s 6s 22 27 mph 1003.9mb 43f 45f
2:50am 6ft 6s 5s 18 20 mph 1005.3mb 43f 44f
1:50am 6ft 5s 5s 22 29 mph 1006.3mb 42f 43f
12:50am 5.5ft 5s 5s 29 34 mph 1007.8mb 42f 42f
Tue 02/24 11:50pm 5ft 5s 4s 25 29 mph 1010.1mb 40f 40f
10:50pm 4.5ft 4s 4s 22 29 mph 1012.3mb 40f 38f
9:50pm 4ft 11s 5s 20 25 mph 1014.6mb 39f 37f
8:50pm 4ft 6s 5s 18 22 mph 1015.8mb 39f 35f
7:50pm 4ft 6s 5s 18 22 mph 1017.6mb 40f 31f
6:50pm 4.5ft 6s 6s 11 18 mph 1019.5mb 42f 27f
5:50pm 4ft 7s 6s 9 11 mph 1020.9mb 42f 25f
4:50pm 4.5ft 7s 6s 7 9 mph 1021.6mb 42f 23f
3:50pm 4.5ft 8s 6s 4 7 mph 1021.9mb 42f 22f
2:50pm 4.5ft 6s 6s 2 4 mph 1022.9mb 42f 22f
1:50pm 4.5ft 7s 6s 4 9 mph 1024.1mb 42f 21f
12:50pm 5ft 9s 6s 2 4 mph 1024.6mb 41f 20f
11:50am 5ft 8s 6s 2 7 mph 1024.8mb 40f 20f
10:50am 5.5ft 7s 6s 4 9 mph 1025.1mb 40f 19f
9:50am 5.5ft 8s 6s 11 13 mph 1024.7mb 39f 19f
8:50am 6ft 7s 6s 9 16 mph 1024.9mb 39f 18f